首页
METAR-TAF:

METAR-TAF

机场 :

累西腓, 伯南布哥, 巴西

累西腓/瓜拉拉皮斯-吉尔贝托·弗雷雷国际机场

纬度: 08-08S, 经度: 034-55W, 海拔: 19米

当前天气观测

该预报发布于15分钟前的13:00 UTC
风速12节,风向东转东南
温度 29°C
湿度 70%
气压 1014 hPa
能见度10公里或以上
散云层高于2300英尺
散云层高于5000英尺

METAR: SBRF 171300Z 12012KT 9999 SCT023 SCT050 29/23 Q1014

时间: 10:15 (13:15 UTC)

预报

该预报发布于3小时和15分钟前的10:00 UTC
预报有效从17日的 12点(UTC)到 18日的 12点(UTC)
风速12节,风向东南
能见度10公里或以上
散云层高于2200英尺

TAF: SBRF 171000Z 1712/1812 13012KT 9999 SCT022 TX30/1716Z TN27/1807Z RMK PEA

超过4000个机场的气象观测和天气预报(METAR&TAF报告)。

可查询的气象台以黄色和红色小点在地图上表示。

将鼠标移到小点上方,可查看气象台名称。

然后点击查看天气观测和预报。

如需切换地图:点击带黑十字的绿色按钮放大地图;点击带横线的绿色按钮缩小地图;或者点击绿色箭头查看邻近地区的地图。


METAR-TAF: